Date,TemperatureHighF,TemperatureAvgF,TemperatureLowF,DewpointHighF,DewpointAvgF,DewpointLowF,HumidityHigh,HumidityAvg,HumidityLow,PressureMaxIn,PressureMinIn,WindSpeedMaxMPH,WindSpeedAvgMPH,GustSpeedMaxMPH,PrecipitationSumIn
2012-1-1,55.2,45.8,32.2,36.2,28.1,15.6,90,53,31,31.45,30.56,17,4,26,0.00
2012-1-2,43.5,34.8,27.3,18.0,10.2,5.9,48,36,30,31.63,31.18,15,6,22,0.00
2012-1-3,31.1,24.6,15.8,8.4,2.0,-7.1,48,37,23,31.63,31.27,15,4,26,0.00
2012-1-4,29.7,21.9,12.4,7.9,-0.1,-9.6,49,38,33,31.63,31.63,8,1,9,0.00
2012-1-5,48.2,35.6,23.9,16.8,12.6,5.1,52,39,28,31.63,31.63,12,1,14,0.00
2012-1-6,65.3,45.0,29.5,26.5,18.3,12.0,50,35,23,31.63,31.63,8,3,13,0.00
2012-1-7,66.0,48.5,37.6,33.7,20.3,12.6,41,33,25,31.63,31.63,14,3,18,0.00
2012-1-8,51.6,40.3,29.7,21.8,17.1,11.7,51,39,28,31.63,31.63,8,1,11,0.00
2012-1-9,39.4,31.9,26.1,25.7,18.1,11.9,76,57,39,31.63,31.63,6,0,8,0.00
2012-1-10,55.9,38.0,26.8,30.2,24.1,17.6,100,64,27,31.63,31.63,10,3,12,0.00
2012-1-11,42.8,35.9,26.1,42.8,30.0,18.0,100,80,54,31.63,29.09,5,0,8,0.79
2012-1-12,58.5,47.0,39.2,45.4,40.6,37.4,100,81,49,29.57,29.34,10,0,17,0.08
2012-1-13,51.1,32.0,25.0,39.6,11.0,3.1,86,42,31,29.96,29.31,18,7,27,0.20
2012-1-14,36.7,28.2,23.2,9.5,5.6,3.8,44,38,31,30.16,29.96,11,3,19,0.00
2012-1-15,37.9,26.8,20.7,8.5,4.9,1.6,50,39,29,30.55,30.16,8,1,13,0.00
2012-1-16,42.3,31.1,17.8,25.1,11.8,4.3,60,45,32,30.55,30.10,14,3,17,0.00
2012-1-17,60.6,47.4,38.8,45.1,32.5,23.7,95,58,37,30.10,29.66,13,3,15,0.16
2012-1-18,52.5,35.7,21.4,28.2,11.7,2.7,52,37,29,30.19,29.72,13,3,20,0.00
2012-1-19,37.9,28.7,16.9,19.8,8.5,3.7,68,44,31,30.19,29.90,15,2,15,0.00
2012-1-20,36.1,29.4,23.5,19.7,7.2,-0.2,68,39,31,30.28,29.96,13,3,13,0.00
2012-1-21,31.6,29.4,26.2,24.8,20.0,16.1,81,68,58,30.28,29.93,10,2,10,0.00
2012-1-22,32.0,29.5,27.0,26.4,18.4,12.5,83,64,51,30.43,30.28,5,1,6,0.00
2012-1-23,46.8,37.6,30.9,39.5,33.7,26.4,95,86,67,30.31,29.84,11,2,17,0.16
2012-1-24,56.8,42.8,30.9,38.2,28.1,20.3,95,62,27,30.22,29.90,6,1,13,0.00
2012-1-25,52.9,40.6,31.5,24.5,21.3,18.0,59,47,32,30.37,30.16,6,1,8,0.00
2012-1-26,45.7,42.1,39.2,42.1,30.9,22.8,92,66,49,30.16,29.69,5,1,6,0.08
2012-1-27,58.3,48.1,39.7,57.6,35.3,19.0,100,66,38,30.01,29.45,19,4,27,0.12
2012-1-28,55.9,40.9,32.2,24.8,18.5,5.5,67,42,26,30.16,29.90,15,4,22,0.00
2012-1-29,47.7,38.1,28.2,25.7,8.7,1.0,68,30,24,30.25,30.01,17,5,26,0.00
2012-1-30,48.0,37.0,27.0,16.0,10.7,6.4,51,34,22,30.37,30.16,10,2,13,0.00
2012-1-31,68.2,50.8,34.5,26.7,18.8,9.9,40,29,17,30.19,30.01,12,3,15,0.00
2012-2-1,64.4,53.5,45.5,36.3,28.8,18.5,63,39,30,30.04,29.98,12,2,17,0.00
2012-2-2,56.5,46.5,39.7,39.4,28.9,17.4,79,53,28,30.34,29.96,11,2,14,0.04
2012-2-3,54.5,40.0,29.3,21.6,18.0,15.6,58,42,27,30.52,30.34,6,1,9,0.00
2012-2-4,41.7,34.9,30.0,29.2,23.8,18.0,83,65,45,30.34,30.10,5,0,7,0.04
2012-2-5,43.2,35.0,29.1,32.1,26.6,20.3,89,73,42,30.22,30.07,0,0,4,0.20
2012-2-6,53.4,37.4,27.0,25.6,21.0,15.8,85,56,27,30.22,30.04,0,0,8,0.00
2012-2-7,58.3,42.5,32.2,23.2,18.6,14.2,63,40,25,30.22,30.07,8,1,10,0.00
2012-2-8,37.0,33.0,29.3,30.2,23.3,15.1,89,69,46,30.25,30.10,4,0,4,0.00
2012-2-9,46.4,34.7,24.8,26.5,14.2,8.7,75,44,28,30.25,30.16,6,1,12,0.12
2012-2-10,45.0,33.9,24.4,29.4,17.5,10.4,84,53,31,30.19,29.90,8,1,10,0.00
2012-2-11,37.4,30.7,20.8,31.3,19.2,0.5,89,65,36,29.96,29.66,16,2,23,0.16
2012-2-12,30.4,23.8,19.2,4.7,1.1,-1.0,43,37,32,30.13,29.96,13,5,23,0.00
2012-2-13,49.8,34.5,23.5,15.1,7.7,3.3,43,33,21,30.19,30.04,10,3,13,0.00
2012-2-14,53.1,40.8,32.2,20.8,15.7,11.6,48,37,24,30.07,29.93,5,0,8,0.00
2012-2-15,56.5,43.4,36.5,24.8,20.6,16.1,58,41,26,30.28,30.01,10,1,13,0.00
2012-2-16,46.0,42.3,37.4,38.5,29.7,19.6,83,62,42,30.25,29.98,8,1,15,0.12
2012-2-17,55.4,44.6,34.3,44.4,24.4,15.3,96,50,25,30.10,29.98,8,2,13,0.00
2012-2-18,62.4,43.2,27.0,23.0,17.4,10.0,69,39,19,30.10,29.87,14,3,17,0.00
2012-2-19,46.9,37.9,31.8,16.9,13.6,9.2,46,37,28,30.10,29.90,8,2,10,0.00
2012-2-20,51.6,38.2,30.0,17.2,11.5,7.2,42,34,21,30.34,29.98,10,3,14,0.00
2012-2-21,51.4,40.2,28.4,22.0,16.3,8.8,47,38,29,30.31,29.84,14,4,17,0.00
2012-2-22,64.4,50.0,34.7,28.9,23.9,20.7,65,38,20,29.84,29.48,16,4,17,0.00
2012-2-23,66.7,54.7,45.5,29.5,25.1,18.5,49,33,20,29.66,29.45,13,4,17,0.00
2012-2-24,58.5,47.3,39.4,46.0,34.9,17.0,93,66,28,29.69,29.36,23,3,26,0.20
2012-2-25,42.1,37.0,32.9,17.5,11.5,6.3,48,35,29,30.25,29.69,17,8,26,0.00
2012-2-26,52.2,39.1,28.2,18.1,10.8,7.2,42,31,21,30.46,30.25,8,2,13,0.00
2012-2-27,67.3,48.6,27.9,25.3,16.9,7.0,49,30,20,30.34,30.10,15,4,20,0.00
2012-2-28,58.1,45.0,32.5,21.2,13.8,11.2,42,29,19,30.49,30.28,6,1,11,0.00
2012-2-29,46.6,42.8,39.2,46.6,34.9,12.4,100,78,30,30.25,29.63,7,0,9,1.85
2012-3-1,64.2,51.6,38.7,52.3,32.9,19.1,100,56,24,29.96,29.60,15,3,17,0.00
2012-3-2,51.8,42.3,31.5,44.2,29.8,20.3,95,63,38,30.01,29.66,8,2,13,0.20
2012-3-3,60.4,48.5,41.2,48.2,27.5,9.7,100,54,17,29.75,29.51,17,3,20,0.04
2012-3-4,46.0,38.3,33.1,18.7,14.5,11.6,47,38,28,29.90,29.72,13,3,21,0.00
2012-3-5,43.9,33.4,26.4,26.7,13.4,6.8,75,44,31,30.46,29.90,10,2,17,0.00
2012-3-6,51.8,37.2,22.1,18.7,13.6,7.8,69,40,26,30.63,30.46,9,2,13,0.00
2012-3-7,69.3,51.3,30.2,33.0,23.2,12.4,56,35,20,30.49,30.28,12,4,17,0.00
2012-3-8,70.2,61.4,50.4,45.9,37.1,32.1,66,41,32,30.28,29.93,16,7,24,0.00
2012-3-9,58.3,47.2,37.0,42.3,18.1,8.4,61,32,22,30.37,30.01,17,4,25,0.00
2012-3-10,51.3,38.7,29.8,14.9,8.3,4.4,37,28,19,30.58,30.37,10,2,12,0.00
2012-3-11,70.2,48.2,29.5,27.1,16.7,5.9,44,29,19,30.52,30.31,8,1,10,0.00
2012-3-12,73.6,55.1,38.7,32.6,25.9,17.8,56,34,18,30.34,30.10,7,1,9,0.00
2012-3-13,81.1,66.4,54.5,45.9,39.9,32.4,69,41,21,30.10,29.98,13,3,17,0.00
2012-3-14,82.4,66.0,55.0,40.9,36.0,31.4,54,35,17,30.19,30.04,6,1,9,0.00
2012-3-15,86.0,63.2,49.1,41.9,36.9,32.4,64,40,19,30.19,30.10,13,2,16,0.00
2012-3-16,69.3,58.9,51.4,49.5,45.7,42.6,83,63,43,30.16,30.10,8,2,8,0.00
2012-3-17,81.0,63.0,49.3,52.8,45.1,40.9,89,57,26,30.28,30.16,5,1,9,0.00
2012-3-18,72.3,61.4,52.0,49.7,44.3,41.1,85,56,34,30.34,30.16,6,1,10,0.00
2012-3-19,79.5,64.6,55.6,54.3,48.2,41.8,82,58,28,30.19,30.10,6,0,8,0.00
2012-3-20,77.2,65.4,57.6,59.6,49.7,43.2,90,60,32,30.25,30.16,6,1,8,0.00
2012-3-21,66.6,61.5,56.1,58.6,51.8,47.9,100,72,52,30.34,30.22,5,0,7,0.00
2012-3-22,83.8,68.5,57.4,57.7,50.6,44.4,88,57,28,30.25,30.07,6,0,6,0.00
2012-3-23,86.7,69.6,56.3,59.3,46.9,37.9,90,51,20,30.10,29.93,5,1,8,0.00
2012-3-24,68.5,60.9,54.0,59.4,52.2,38.3,100,76,33,29.93,29.87,8,1,9,0.67
2012-3-25,62.1,54.5,49.1,50.3,45.5,39.6,92,73,45,29.87,29.75,8,2,9,0.00
2012-3-26,59.4,53.3,39.7,46.3,21.9,2.9,70,32,18,30.22,29.81,17,4,26,0.00
2012-3-27,59.4,43.5,30.2,14.5,6.9,-0.6,31,22,17,30.37,30.16,8,1,12,0.00
2012-3-28,77.0,60.0,43.0,43.7,27.1,9.2,46,29,20,30.13,29.66,17,4,17,0.00
2012-3-29,66.0,56.8,44.6,27.9,23.6,17.5,37,28,23,30.01,29.72,11,4,14,0.00
2012-3-30,54.9,44.8,36.1,31.7,24.2,19.0,57,44,36,30.10,29.81,4,0,5,0.00
2012-3-31,65.8,53.0,45.1,41.0,36.4,31.7,77,55,35,29.90,29.72,8,2,12,0.00
2012-4-1,68.4,55.1,46.8,49.5,36.0,31.0,82,51,27,29.90,29.57,9,1,11,0.08
2012-4-2,64.4,53.4,43.9,51.7,25.7,13.8,95,39,18,29.96,29.57,14,4,17,0.12
2012-4-3,73.2,52.3,34.3,26.0,21.1,15.3,58,32,16,30.04,29.78,5,0,7,0.00
2012-4-4,77.4,60.7,49.1,39.2,29.2,12.7,50,33,16,29.78,29.60,10,2,17,0.00
2012-4-5,64.9,51.6,40.6,25.6,19.9,13.6,45,29,20,29.90,29.75,6,1,9,0.00
2012-4-6,64.4,49.2,34.5,23.8,16.3,9.3,50,29,16,30.10,29.90,10,2,15,0.00
2012-4-7,67.5,51.8,33.1,18.1,12.3,2.3,42,22,15,30.22,30.07,9,2,14,0.00
2012-4-8,73.9,54.9,34.9,24.9,18.7,7.2,42,26,16,30.10,29.84,12,3,19,0.00
2012-4-9,66.2,55.3,46.8,26.9,20.0,9.9,45,26,18,29.93,29.78,17,4,23,0.00
2012-4-10,65.3,50.6,39.4,31.0,21.5,11.7,67,36,16,29.90,29.72,13,4,17,0.00
2012-4-11,55.0,43.2,35.6,27.2,18.2,10.5,56,37,26,30.04,29.90,13,2,19,0.00
2012-4-12,61.2,47.6,34.5,25.3,20.6,16.3,62,36,21,30.16,30.04,10,2,15,0.00
2012-4-13,68.7,51.5,36.5,28.0,22.6,18.6,57,35,17,30.28,30.16,9,1,9,0.00
2012-4-14,73.8,58.3,40.1,33.9,25.4,21.6,54,31,16,30.22,30.04,10,3,14,0.00
2012-4-15,83.1,67.9,54.3,47.1,39.7,34.0,69,39,20,30.07,29.98,10,3,13,0.00
2012-4-16,90.9,74.2,59.4,50.5,43.3,38.2,69,37,18,30.04,29.90,9,2,11,0.00
2012-4-17,75.4,64.6,52.0,37.5,28.0,20.2,39,26,17,30.25,29.98,11,2,13,0.00
2012-4-18,53.4,51.2,48.6,47.4,38.1,28.1,89,62,40,30.28,30.13,4,0,5,0.35
2012-4-19,69.8,56.3,48.2,51.9,43.1,33.5,97,67,27,30.13,30.01,5,0,6,0.00
2012-4-20,74.8,59.2,44.4,48.6,40.6,37.8,86,54,31,30.01,29.78,10,1,13,0.00
2012-4-21,83.8,62.4,52.0,57.6,45.5,37.0,88,58,22,29.81,29.60,9,2,15,0.51
2012-4-22,52.0,47.9,41.4,45.8,42.9,36.9,100,84,62,29.81,29.48,10,3,13,0.91
2012-4-23,45.0,40.8,36.0,36.7,30.8,20.1,88,69,42,29.54,29.36,8,3,12,0.39
2012-4-24,62.8,48.5,36.9,22.9,18.0,13.7,50,31,17,29.72,29.51,17,4,17,0.00
2012-4-25,69.4,52.6,36.5,28.4,23.4,16.6,66,36,17,29.87,29.72,11,2,19,0.00
2012-4-26,72.5,61.2,53.1,54.4,36.7,22.0,69,41,26,29.87,29.60,10,1,14,0.00
2012-4-27,62.2,53.1,45.9,33.1,19.9,14.0,38,28,19,30.19,29.78,10,3,14,0.00
2012-4-28,53.4,45.9,40.5,35.6,19.8,13.4,73,36,26,30.28,30.13,5,0,8,0.04
2012-4-29,71.4,53.0,38.8,44.4,31.8,20.4,94,53,17,30.25,30.10,5,0,9,0.04
2012-4-30,64.8,53.8,42.8,43.4,29.5,16.7,62,40,27,30.31,30.07,4,0,9,0.00
2012-5-1,84.6,69.0,57.6,64.8,46.1,36.7,96,49,19,30.07,29.96,9,2,13,0.08
2012-5-2,82.2,68.4,61.0,58.1,51.3,46.2,75,56,33,30.07,29.98,6,0,13,0.00
2012-5-3,89.6,71.2,57.0,55.6,51.9,49.1,90,55,25,30.19,29.98,8,1,11,0.00
2012-5-4,85.1,72.6,63.5,62.2,51.5,42.3,88,51,23,30.01,29.87,10,3,15,0.00
2012-5-5,79.2,70.2,60.6,60.4,51.6,45.1,83,55,32,29.98,29.87,6,0,7,0.00
2012-5-6,73.6,66.2,62.2,55.1,50.6,46.0,75,58,40,30.07,29.96,5,0,7,0.00
2012-5-7,68.5,64.4,60.6,51.5,45.4,30.1,70,51,30,30.04,29.96,10,1,10,0.00
2012-5-8,68.9,64.0,59.9,65.5,49.8,29.1,100,64,29,29.98,29.78,10,3,13,0.63
2012-5-9,72.3,63.8,57.0,65.1,57.8,50.6,100,83,48,29.81,29.66,6,1,11,0.08
2012-5-10,65.3,56.9,49.5,57.0,35.8,26.7,100,48,25,29.96,29.63,10,2,17,0.00
2012-5-11,73.9,58.2,42.6,35.2,29.9,24.9,69,38,18,30.19,29.96,9,2,13,0.00
2012-5-12,77.4,61.8,46.4,41.5,36.2,31.7,67,42,20,30.31,30.19,8,2,9,0.00
2012-5-13,81.1,67.5,56.8,51.1,46.0,41.4,70,48,29,30.19,30.07,6,1,9,0.00
2012-5-14,65.3,62.6,60.6,63.3,58.5,51.1,100,87,60,30.10,30.01,7,0,10,0.39
2012-5-15,75.4,67.6,62.8,66.9,58.7,49.2,100,77,42,30.01,29.90,7,1,9,0.12
2012-5-16,82.9,70.3,58.8,62.6,47.7,35.0,100,53,19,29.96,29.84,8,2,12,0.00
2012-5-17,73.9,63.6,54.0,43.9,32.5,27.3,45,32,18,30.13,29.96,10,2,10,0.00
2012-5-18,77.7,61.7,45.5,44.5,36.0,30.3,79,43,21,30.19,30.10,6,0,6,0.00
2012-5-19,82.2,66.1,51.1,49.4,40.3,35.8,66,42,20,30.19,30.07,6,0,8,0.00
2012-5-20,84.4,68.8,55.0,52.8,44.2,36.3,79,47,19,30.19,30.10,6,0,8,0.00
2012-5-21,68.0,66.2,64.4,66.7,61.8,49.0,100,87,51,30.10,29.93,0,0,0,0.94
2012-5-22,76.6,68.0,63.7,69.4,62.6,54.3,100,85,48,29.93,29.81,5,0,8,0.20
2012-5-23,78.8,67.3,60.6,67.6,60.4,52.1,100,81,41,29.96,29.87,4,0,5,0.20
2012-5-24,82.0,72.7,64.8,65.9,56.6,46.6,94,62,30,30.07,29.96,6,0,12,0.12
2012-5-25,86.2,74.6,65.5,66.4,58.3,49.6,91,61,29,30.13,30.07,6,0,8,0.00
2012-5-26,90.0,77.0,66.7,66.1,58.4,51.6,89,56,28,30.16,30.07,6,0,9,0.00
2012-5-27,89.4,76.4,66.4,65.3,57.4,44.4,88,56,28,30.19,30.01,8,1,17,0.12
2012-5-28,90.3,76.7,64.4,64.0,57.1,51.0,92,55,28,30.10,29.87,12,2,18,0.04
2012-5-29,91.8,75.5,68.9,67.1,60.0,50.7,93,63,27,29.93,29.75,9,2,12,0.16
2012-5-30,84.6,72.0,62.1,68.1,50.8,37.5,96,53,21,29.84,29.72,7,1,13,0.04
2012-5-31,81.9,70.7,61.9,58.2,44.0,35.5,77,43,20,29.90,29.75,6,0,8,0.00
2012-6-1,74.5,68.4,61.9,68.7,54.5,38.4,95,64,35,29.90,29.63,6,0,11,0.71
2012-6-2,73.6,62.9,52.7,61.3,40.3,31.0,100,49,23,29.84,29.72,9,2,13,0.00
2012-6-3,78.6,64.8,52.2,50.3,39.0,32.4,71,43,21,29.87,29.72,9,3,16,0.04
2012-6-4,72.7,63.4,54.3,50.0,40.8,32.4,81,48,24,29.78,29.66,11,3,15,0.00
2012-6-5,70.2,61.5,57.2,46.1,39.8,34.6,66,46,27,29.96,29.75,5,0,9,0.00
2012-6-6,75.2,62.3,51.1,49.3,41.2,35.6,82,50,24,30.01,29.96,8,1,9,0.00
2012-6-7,79.3,64.9,54.1,50.4,41.6,31.5,82,47,21,30.04,29.96,8,1,15,0.00
2012-6-8,84.2,68.4,54.5,48.9,42.4,35.4,76,44,19,30.04,29.93,7,2,10,0.00
2012-6-9,90.0,73.4,58.6,48.1,42.1,34.4,65,37,15,30.01,29.93,6,2,10,0.00
2012-6-10,91.4,75.7,61.7,52.2,46.3,40.3,69,39,18,30.10,30.01,8,1,8,0.00
2012-6-11,85.5,74.1,65.1,58.9,50.8,45.6,73,46,28,30.13,30.04,9,1,13,0.00
2012-6-12,79.2,71.1,66.6,72.9,63.3,52.9,97,78,52,30.04,29.81,7,0,10,0.94
2012-6-13,79.0,69.0,63.1,66.4,46.7,32.4,100,53,21,30.07,29.87,11,3,13,0.00
2012-6-14,80.8,68.0,56.7,56.3,47.8,40.9,80,51,27,30.19,30.07,2,0,6,0.00
2012-6-15,81.1,70.4,62.8,55.8,47.8,39.5,74,48,23,30.28,30.19,3,0,6,0.00
2012-6-16,79.3,68.6,57.9,51.5,44.9,39.9,72,45,26,30.31,30.16,4,0,4,0.00
2012-6-17,81.0,68.9,57.4,49.5,44.0,39.9,66,42,24,30.19,30.01,8,0,10,0.00
2012-6-18,69.3,65.2,62.2,59.7,53.5,43.7,82,67,44,30.10,30.01,5,0,8,0.04
2012-6-19,90.5,75.6,64.9,63.1,58.4,51.6,86,60,28,30.13,30.04,6,1,7,0.00
2012-6-20,94.6,81.9,70.3,65.1,56.4,44.3,79,48,18,30.16,30.01,6,1,10,0.00
2012-6-21,95.4,81.8,71.1,64.9,57.7,46.3,78,49,19,30.01,29.84,6,1,8,0.00
2012-6-22,81.9,73.8,70.0,70.2,63.4,53.8,100,73,38,29.87,29.81,9,2,9,0.79
2012-6-23,86.5,74.0,64.4,70.0,57.2,41.8,100,64,22,30.01,29.87,6,1,10,0.00
2012-6-24,86.5,74.3,62.6,61.2,54.8,43.4,86,55,23,30.04,29.90,8,0,9,0.00
2012-6-25,83.3,72.7,63.5,63.2,47.7,28.6,80,47,19,29.90,29.75,14,3,16,0.04
2012-6-26,78.3,66.5,52.9,42.0,34.8,29.3,66,33,21,29.93,29.81,9,3,15,0.00
2012-6-27,86.4,71.0,55.8,48.8,40.7,35.6,60,36,19,29.96,29.87,8,2,13,0.00
2012-6-28,93.0,76.7,62.1,51.7,47.8,41.4,64,40,18,29.93,29.75,8,3,10,0.00
2012-6-29,101.5,86.1,70.5,68.1,55.6,46.8,77,38,16,29.84,29.69,8,2,35,0.20
2012-6-30,81.0,78.4,76.1,67.3,65.6,62.7,74,65,54,29.84,29.84,0,0,0,0.00
2012-7-1,94.3,82.0,71.1,68.9,55.5,42.1,81,47,17,29.93,29.81,6,2,10,0.00
2012-7-2,91.9,78.6,67.8,65.3,53.1,40.8,85,47,18,30.01,29.90,6,1,9,0.08
2012-7-3,94.8,77.4,67.8,67.0,55.5,42.3,96,54,17,29.98,29.90,9,1,23,0.47
2012-7-4,95.0,79.7,67.5,69.8,56.5,40.6,100,53,19,29.93,29.81,6,1,12,0.08
2012-7-5,96.1,82.7,70.7,60.5,50.4,42.8,69,37,17,29.90,29.81,7,1,10,0.00
2012-7-6,97.0,84.2,73.0,64.3,54.8,43.4,71,41,16,29.96,29.90,6,0,8,0.00
2012-7-7,100.0,86.4,74.8,66.1,56.7,43.6,73,42,16,29.93,29.84,6,2,8,0.00
2012-7-8,96.4,81.2,75.0,69.9,61.9,51.1,84,55,25,29.90,29.84,9,1,10,0.04
2012-7-9,82.4,75.0,70.0,73.6,63.7,48.8,100,72,32,29.98,29.87,5,0,8,0.98
2012-7-10,88.7,76.5,67.6,65.1,55.5,41.2,87,54,20,30.04,29.96,4,0,6,0.00
2012-7-11,89.4,77.1,68.7,62.1,54.0,41.6,78,49,20,30.13,30.04,7,0,8,0.00
2012-7-12,87.6,75.4,65.8,59.0,51.3,42.8,75,46,21,30.19,30.16,8,0,8,0.00
2012-7-13,80.8,74.3,69.1,59.8,52.6,46.9,72,48,32,30.22,30.16,4,0,5,0.00
2012-7-14,85.1,74.6,67.6,65.1,59.3,52.8,90,61,34,30.22,30.10,5,0,8,0.04
2012-7-15,92.3,78.7,72.5,67.1,60.9,48.9,81,58,23,30.13,29.98,10,2,13,0.00
2012-7-16,94.1,80.0,69.6,67.7,57.1,42.2,88,51,19,30.01,29.87,10,2,12,0.00
2012-7-17,98.8,82.6,70.2,62.6,54.2,43.4,76,44,16,29.93,29.81,8,2,10,0.00
2012-7-18,96.3,78.7,73.4,74.0,60.7,53.5,80,56,25,29.93,29.84,8,2,14,0.08
2012-7-19,93.4,79.3,71.2,71.6,60.1,50.7,100,58,24,29.98,29.84,15,1,18,0.83
2012-7-20,77.4,72.1,67.1,73.4,68.8,62.5,100,90,62,29.98,29.87,0,0,6,0.16
2012-7-21,69.1,66.2,63.5,67.8,63.9,61.2,100,93,79,30.13,29.98,0,0,4,0.39
2012-7-22,83.1,72.5,66.6,69.3,62.5,53.9,100,74,39,30.19,30.10,5,0,5,0.00
2012-7-23,87.1,77.5,69.6,70.4,59.3,45.8,93,58,27,30.10,29.90,8,2,11,0.00
2012-7-24,86.9,77.4,71.2,65.9,59.1,46.7,76,55,33,29.93,29.75,10,3,15,0.00
2012-7-25,86.7,75.2,64.4,56.8,44.9,36.6,73,37,19,29.98,29.84,7,1,8,0.00
2012-7-26,97.3,80.3,68.7,65.0,56.2,48.3,76,47,20,29.84,29.66,13,2,15,0.00
2012-7-27,86.9,78.9,72.5,64.3,56.5,51.5,75,48,31,29.90,29.75,8,2,9,0.00
2012-7-28,90.7,77.8,68.7,63.0,52.9,40.4,80,47,19,29.96,29.87,8,2,9,0.00
2012-7-29,88.7,75.8,65.1,58.8,50.0,41.1,75,44,19,30.04,29.93,8,1,9,0.00
2012-7-30,89.8,76.0,65.5,61.1,53.6,45.9,81,50,22,30.07,29.98,4,0,6,0.00
2012-7-31,90.1,77.3,68.2,64.3,56.7,45.7,83,53,22,30.01,29.87,9,1,14,0.04
2012-8-1,88.5,73.0,65.8,65.7,59.1,50.5,90,65,29,29.93,29.81,5,0,10,0.04
2012-8-2,93.0,77.8,66.0,65.8,56.2,43.9,90,54,19,29.93,29.87,3,0,5,0.00
2012-8-3,93.6,80.4,70.2,67.4,57.6,47.3,80,50,23,30.04,29.90,7,0,10,0.00
2012-8-4,93.9,82.1,72.1,64.8,55.8,44.8,76,44,19,30.13,30.04,10,2,15,0.00
2012-8-5,92.8,76.5,72.5,72.6,63.1,52.2,95,65,27,30.13,30.01,11,2,16,0.31
2012-8-6,88.9,77.7,71.1,72.4,58.4,39.7,97,60,19,30.07,29.98,0,0,4,0.00
2012-8-7,88.5,76.2,66.6,62.5,52.5,41.0,81,49,20,30.01,29.96,0,0,0,0.00
2012-8-8,92.8,79.1,70.0,64.6,54.1,40.4,78,48,17,30.01,29.90,0,0,0,0.00
2012-8-9,93.4,76.5,68.7,64.9,55.4,44.9,84,52,20,29.98,29.84,8,1,14,0.00
2012-8-10,85.8,75.5,68.4,70.5,58.5,51.0,97,59,31,29.84,29.69,9,2,13,0.35
2012-8-11,88.3,76.7,69.3,61.4,49.1,38.5,71,42,19,29.96,29.78,8,2,11,0.00
2012-8-12,85.6,72.7,62.8,55.0,45.8,37.8,73,42,20,30.01,29.93,6,1,13,0.00
2012-8-13,89.1,73.8,63.1,58.3,48.6,38.5,80,47,18,30.07,29.93,9,1,9,0.00
2012-8-14,87.4,75.5,69.3,64.9,55.1,46.1,82,52,25,29.93,29.81,6,0,8,0.04
2012-8-15,82.2,72.0,65.3,62.9,53.2,41.8,87,56,26,29.96,29.87,0,0,0,0.00
2012-8-16,88.7,73.7,61.9,60.6,49.0,36.6,91,50,18,30.01,29.90,8,1,10,0.00
2012-8-17,90.9,73.3,64.8,62.8,52.1,39.1,81,52,18,29.93,29.78,9,2,11,0.00
2012-8-18,84.6,72.6,64.9,62.6,46.2,31.8,82,45,16,29.96,29.87,9,1,10,0.00
2012-8-19,72.7,66.9,63.0,61.1,49.3,44.0,78,54,38,29.96,29.90,4,0,8,0.04
2012-8-20,80.8,67.9,64.0,62.0,55.3,42.7,92,68,27,29.98,29.84,6,0,11,0.16
2012-8-21,84.0,70.0,62.6,66.4,53.3,37.0,100,65,19,30.10,29.98,6,0,7,0.00
2012-8-22,88.0,70.3,61.0,55.2,49.3,38.0,76,51,18,30.16,30.07,8,0,11,0.00
2012-8-23,89.4,72.7,60.4,59.7,48.9,37.2,88,50,18,30.19,30.10,0,0,0,0.00
2012-8-24,87.1,74.2,64.9,60.0,51.3,39.5,79,49,19,30.19,30.10,6,0,6,0.00
2012-8-25,77.5,72.7,68.5,61.4,50.6,37.7,77,49,24,30.22,30.13,5,0,11,0.00
2012-8-26,76.1,70.7,68.7,75.2,64.3,51.5,100,82,52,30.22,30.13,0,0,0,0.87
2012-8-27,88.2,74.8,65.3,70.2,58.7,43.3,100,65,21,30.16,29.96,8,1,10,0.00
2012-8-28,88.0,77.0,67.8,63.9,48.7,33.7,80,42,16,29.98,29.90,8,2,12,0.00
2012-8-29,83.8,70.4,60.8,57.4,47.6,36.8,82,49,21,30.04,29.96,4,0,6,0.00
2012-8-30,87.6,72.7,61.3,58.9,48.0,37.8,85,48,18,30.13,30.04,6,0,8,0.00
2012-8-31,95.9,78.2,63.3,66.8,49.0,31.6,97,45,11,30.13,29.98,10,2,12,0.00
2012-9-1,92.3,78.5,71.2,61.5,53.5,45.0,68,44,21,30.10,29.98,8,3,10,0.00
2012-9-2,79.2,74.2,69.4,70.6,63.5,57.7,82,70,49,30.04,29.96,0,0,0,0.08
2012-9-3,85.6,76.2,71.4,68.2,60.9,48.7,88,63,29,30.04,29.98,0,0,0,0.00
2012-9-4,84.6,76.7,71.4,68.8,61.0,51.0,87,61,32,30.01,29.84,10,2,12,0.04
2012-9-5,91.2,79.6,72.9,65.5,57.1,44.1,76,50,20,29.87,29.78,9,1,10,0.00
2012-9-6,89.6,76.9,72.0,66.2,59.2,50.6,76,57,28,29.93,29.84,0,0,0,0.00
2012-9-7,93.2,78.9,68.9,62.6,52.9,41.2,79,46,17,29.96,29.81,8,1,10,0.00
2012-9-8,84.6,70.9,61.5,61.6,54.3,45.8,89,58,29,29.87,29.63,10,2,13,0.28
2012-9-9,79.0,64.7,54.9,52.2,39.3,24.5,87,46,15,29.98,29.84,8,1,11,0.00
2012-9-10,75.4,61.9,52.0,48.1,35.5,26.1,79,42,18,30.16,29.98,12,2,14,0.00
2012-9-11,80.1,61.8,47.8,43.8,34.7,23.3,79,42,15,30.31,30.16,8,1,10,0.00
2012-9-12,84.2,64.9,50.7,46.9,39.0,33.1,78,44,18,30.37,30.28,0,0,0,0.00
2012-9-13,85.8,67.1,53.8,51.1,39.6,31.2,81,42,16,30.37,30.25,0,0,0,0.00
2012-9-14,86.4,67.5,53.2,49.0,40.9,34.5,77,43,18,30.28,30.10,0,0,4,0.00
2012-9-15,78.8,66.9,57.0,48.4,33.8,25.8,54,31,15,30.25,30.10,14,3,14,0.00
2012-9-16,75.6,61.7,52.0,44.2,37.6,30.5,72,44,21,30.19,30.07,0,0,2,0.00
2012-9-17,79.0,62.4,49.5,57.6,45.3,40.4,83,57,26,30.10,29.96,0,0,2,0.00
2012-9-18,71.2,67.6,60.8,69.6,64.5,44.9,100,90,55,29.96,29.57,8,1,17,1.89
2012-9-19,70.7,60.0,50.9,48.3,36.7,25.8,69,45,22,30.16,29.87,8,2,11,1.89
2012-9-20,77.7,59.7,45.5,45.6,38.5,32.9,84,51,21,30.19,30.04,0,0,0,1.89
2012-9-21,82.8,67.2,54.3,54.1,45.5,37.3,81,50,20,30.04,29.93,3,0,7,1.89
2012-9-22,84.4,70.8,61.5,56.3,43.6,30.9,77,42,20,29.93,29.78,13,2,13,0.00
2012-9-23,69.4,58.4,48.6,36.1,27.8,22.4,50,32,20,30.16,29.96,6,0,15,0.00
2012-9-24,70.7,57.2,47.8,41.5,31.3,20.2,70,42,17,30.25,30.10,0,0,0,0.00
2012-9-25,76.6,60.0,43.9,38.1,32.9,27.8,69,39,20,30.19,30.04,0,0,0,0.00
2012-9-26,80.4,67.7,58.1,56.7,45.8,36.0,81,49,23,30.13,30.04,8,1,17,0.00
2012-9-27,80.1,68.8,62.4,61.7,52.3,41.9,86,59,27,30.16,30.04,4,0,8,0.00
2012-9-28,72.3,65.9,60.1,67.3,49.9,35.5,100,61,31,30.07,29.98,6,1,9,0.00
2012-9-29,68.0,58.6,51.1,43.8,37.0,29.4,73,47,24,30.04,29.93,9,1,11,0.00
2012-9-30,73.2,56.5,49.6,49.0,41.8,30.3,85,62,24,29.93,29.81,8,2,13,0.00
2012-10-1,68.9,55.7,45.3,50.4,42.7,31.0,95,67,25,29.98,29.90,9,0,12,0.00
2012-10-2,66.6,62.2,58.8,66.6,59.8,49.0,100,92,69,29.96,29.90,0,0,4,0.88
2012-10-3,78.3,68.7,63.3,67.5,59.0,45.1,100,76,31,30.10,29.93,8,1,8,0.00
2012-10-4,79.9,69.8,60.4,66.6,49.5,30.0,94,56,20,30.16,30.10,7,1,9,0.00
2012-10-5,81.3,65.5,55.6,44.7,39.1,31.3,66,41,17,30.13,29.93,8,2,10,0.00
2012-10-6,69.6,60.0,48.7,48.4,35.7,23.0,69,43,23,30.07,29.84,17,2,17,0.00
2012-10-7,53.6,49.4,43.9,42.2,32.0,23.7,75,52,36,30.16,30.01,6,0,6,0.04
2012-10-8,47.3,43.3,38.7,36.1,32.2,25.2,78,65,44,30.31,30.16,4,0,6,0.04
2012-10-9,65.5,51.9,43.9,37.0,33.2,27.6,75,52,25,30.22,30.04,4,0,6,0.00
2012-10-10,70.5,54.5,44.1,47.1,32.9,20.5,92,49,22,30.10,29.87,9,2,17,0.00
2012-10-11,65.5,51.0,41.7,23.0,17.8,13.9,42,27,16,30.28,30.10,9,2,11,0.00
2012-10-12,59.5,47.7,37.4,32.7,23.4,15.3,73,41,23,30.43,30.13,10,2,14,0.00
2012-10-13,62.8,46.4,31.8,25.4,20.8,16.6,60,39,21,30.49,30.22,8,1,10,0.00
2012-10-14,76.5,61.0,50.0,37.6,32.2,24.4,48,35,22,30.22,29.90,9,2,13,0.00
2012-10-15,66.2,62.5,53.2,59.1,43.1,29.4,83,51,35,29.90,29.69,9,2,13,0.20
2012-10-16,66.2,54.7,43.2,30.0,25.8,20.7,54,34,20,29.93,29.84,9,2,13,0.00
2012-10-17,71.6,52.6,37.8,37.0,29.6,25.8,79,45,22,30.01,29.90,8,0,9,0.00
2012-10-18,68.9,59.0,50.0,57.0,38.9,31.8,92,50,31,29.93,29.78,10,1,13,0.79
2012-10-19,67.3,59.0,50.7,60.6,53.5,41.3,100,84,42,29.81,29.60,3,0,6,0.12
2012-10-20,66.6,53.7,44.8,40.5,27.7,18.9,73,40,17,29.96,29.66,8,1,13,0.00
2012-10-21,67.1,52.0,40.3,31.9,24.5,19.2,67,37,18,30.13,29.96,7,2,11,0.00
2012-10-22,74.3,53.9,40.5,34.9,29.7,25.8,69,44,18,30.22,30.07,7,2,8,0.00
2012-10-23,80.4,61.6,50.4,41.9,35.4,32.0,60,40,20,30.16,30.01,5,0,7,0.00
2012-10-24,82.0,66.2,56.8,48.7,39.2,29.7,71,42,17,30.13,30.04,11,1,12,0.00
2012-10-25,72.5,62.4,54.9,54.2,44.0,36.6,83,53,32,30.19,30.10,4,0,5,0.00
2012-10-26,67.3,62.9,58.6,51.1,44.7,37.5,70,53,35,30.16,30.04,4,0,5,0.00
2012-10-27,68.2,62.3,58.1,47.1,39.1,30.3,62,44,26,30.04,29.87,4,0,6,0.00
2012-10-28,58.3,56.1,50.9,49.2,38.9,31.1,94,54,36,29.87,29.63,10,4,13,0.24
2012-10-29,50.7,47.5,42.8,49.5,43.5,35.1,100,86,73,29.66,28.77,13,4,24,3.07
2012-10-30,43.0,40.4,38.8,35.4,33.0,30.4,82,75,68,29.45,28.74,15,5,26,0.83
2012-10-31,50.4,43.7,38.7,34.2,25.1,18.7,81,51,30,29.66,29.45,8,2,12,0.04
2012-11-1,49.6,45.3,40.8,22.6,19.2,17.5,45,35,29,29.75,29.63,12,4,17,0.00
2012-11-2,50.7,43.5,35.8,20.5,16.8,13.5,52,35,27,29.93,29.72,11,3,17,0.00
2012-11-3,46.2,43.1,41.2,18.1,14.1,12.0,39,31,28,30.07,29.93,10,2,15,0.00
2012-11-4,53.6,42.9,36.0,18.6,14.2,10.9,42,31,23,30.07,29.98,8,1,13,0.00
2012-11-5,52.7,41.1,30.4,15.8,11.0,8.4,43,29,21,30.16,30.04,13,2,13,0.00
2012-11-6,51.3,35.3,26.1,17.3,12.3,9.5,56,40,24,30.19,30.01,6,0,8,0.00
2012-11-7,42.8,38.0,34.2,14.8,12.0,8.6,44,34,29,30.01,29.90,8,2,10,0.00
2012-11-8,56.5,42.9,30.2,14.0,8.5,3.4,40,25,17,30.07,29.93,10,2,15,0.00
2012-11-9,60.8,45.3,33.3,22.8,17.7,13.5,50,34,21,30.22,30.07,8,1,11,0.00
2012-11-10,67.5,47.5,32.5,27.0,21.1,16.4,69,38,17,30.34,30.19,4,0,6,0.00
2012-11-11,71.8,53.6,35.8,30.3,23.7,18.9,63,35,17,30.43,30.31,6,1,9,0.00
2012-11-12,67.8,60.9,49.6,45.2,35.8,23.9,75,40,25,30.37,30.10,14,5,17,0.20
2012-11-13,50.5,41.9,30.2,42.3,21.7,8.0,85,49,24,30.49,30.22,10,2,13,0.51
2012-11-14,48.6,34.9,26.4,18.4,13.5,9.2,61,43,24,30.55,30.43,6,1,9,0.00
2012-11-15,44.4,35.7,28.6,22.9,17.8,13.8,64,49,35,30.43,30.28,5,0,6,0.00
2012-11-16,56.1,40.5,31.5,27.6,20.0,13.1,74,48,20,30.43,30.28,6,0,8,0.00
2012-11-17,58.5,39.3,26.8,21.9,16.5,10.3,70,43,19,30.60,30.43,6,1,8,0.00
2012-11-18,57.4,42.1,29.1,23.0,19.6,14.9,63,42,26,30.60,30.49,6,1,8,0.00
2012-11-19,55.8,44.2,34.2,25.4,21.8,18.0,69,42,26,30.49,30.22,6,1,8,0.00
2012-11-20,50.5,40.1,32.0,30.0,24.9,22.6,79,56,35,30.22,30.07,5,0,6,0.00
2012-11-21,57.2,39.4,29.1,39.1,23.0,15.3,92,57,25,30.22,30.13,4,0,6,0.00
2012-11-22,61.0,40.2,27.0,23.8,17.6,11.8,75,44,19,30.28,30.10,5,1,7,0.00
2012-11-23,67.1,46.1,28.9,28.2,19.2,11.6,63,38,17,30.10,29.75,17,2,18,0.00
2012-11-24,42.4,36.4,32.4,11.1,6.3,2.8,30,28,26,30.04,29.87,18,5,23,0.00
2012-11-25,45.1,34.6,26.8,10.4,5.9,3.0,42,30,22,30.04,29.90,8,2,14,0.00
2012-11-26,56.8,38.8,24.8,20.3,12.5,6.1,51,35,20,30.16,29.96,6,1,8,0.00
2012-11-27,42.1,38.5,35.4,33.2,26.4,15.0,86,64,33,30.25,30.13,8,2,9,0.24
2012-11-28,48.7,38.2,32.4,20.6,10.5,2.6,51,33,19,30.34,30.22,10,2,14,0.00
2012-11-29,51.8,36.7,26.4,14.1,8.6,3.1,48,32,18,30.43,30.28,9,2,13,0.00
2012-11-30,58.3,38.8,26.1,18.7,12.1,7.7,54,35,17,30.34,30.25,4,0,6,0.00
2012-12-1,54.3,40.3,30.2,25.4,19.6,13.3,67,44,28,30.43,30.31,4,0,6,0.00
2012-12-2,61.9,44.4,31.5,31.0,27.3,23.3,86,55,26,30.34,30.10,5,0,7,0.00
2012-12-3,68.4,56.0,45.7,40.4,34.8,28.3,71,46,27,30.25,30.13,6,1,7,0.00
2012-12-4,74.8,60.3,49.6,45.1,36.0,29.4,81,44,21,30.19,29.96,9,2,13,0.00
2012-12-5,62.8,50.8,34.9,31.8,16.7,4.7,35,26,17,30.31,29.96,10,4,15,0.00
2012-12-6,48.7,35.2,25.0,13.7,8.1,4.1,48,33,22,30.37,30.19,6,0,8,0.00
2012-12-7,50.7,41.2,35.6,36.0,25.3,8.8,77,55,32,30.16,29.93,4,0,6,0.08
2012-12-8,58.6,45.8,37.6,41.2,33.3,29.9,86,64,36,30.01,29.84,4,0,6,0.00
2012-12-9,48.7,47.5,45.9,47.2,44.5,39.1,97,90,74,30.16,29.93,0,0,6,0.31
2012-12-10,56.7,51.4,43.3,56.3,47.6,26.5,100,88,44,29.93,29.54,6,0,11,0.00
2012-12-11,48.7,41.7,33.6,27.9,18.3,11.0,55,40,28,30.19,29.72,8,1,17,0.00
2012-12-12,42.3,35.5,30.2,16.5,13.0,9.1,51,40,29,30.43,30.19,6,0,8,0.00
2012-12-13,49.5,34.0,24.4,18.7,13.5,7.7,66,45,24,30.46,30.28,5,0,6,0.00
2012-12-14,55.2,36.0,23.7,19.7,12.7,9.1,62,41,20,30.31,30.16,6,1,9,0.00
2012-12-15,57.2,41.1,29.1,19.7,14.3,11.0,52,35,20,30.25,30.07,5,1,10,0.00
2012-12-16,48.4,45.3,42.3,34.2,25.4,14.4,68,46,28,30.07,29.81,6,0,8,0.00
2012-12-17,51.1,45.4,38.5,48.2,38.1,30.9,90,76,51,29.84,29.51,5,0,8,0.04
2012-12-18,54.9,45.9,38.8,46.4,30.1,15.2,100,60,30,29.81,29.51,13,3,17,0.00
2012-12-19,50.5,41.5,32.4,24.6,20.3,15.4,55,43,34,30.16,29.78,8,1,11,0.00
2012-12-20,46.2,40.1,34.5,42.3,24.5,18.6,86,55,35,30.16,29.36,10,2,14,0.12
2012-12-21,47.5,38.6,35.1,44.1,14.9,7.2,90,40,29,29.54,29.31,19,7,25,0.28
2012-12-22,43.7,36.2,29.1,9.6,6.6,3.1,33,29,23,30.01,29.54,17,6,30,0.00
2012-12-23,50.5,35.0,23.5,9.7,5.4,1.7,42,29,19,30.01,29.84,9,2,13,0.00
2012-12-24,37.0,31.5,25.3,26.4,16.4,6.4,74,55,34,30.04,29.87,4,0,6,0.00
2012-12-25,40.8,35.2,32.7,28.8,24.7,18.1,80,66,40,30.22,29.87,8,1,10,0.20
2012-12-26,35.4,32.3,29.5,30.0,21.5,12.3,87,66,43,30.19,29.48,8,3,10,0.24
2012-12-27,36.3,34.8,33.4,30.4,14.1,8.8,88,44,33,29.98,29.48,13,4,19,0.20
2012-12-28,41.0,34.9,31.6,14.4,10.9,8.4,47,37,29,30.13,29.98,7,1,9,0.12
2012-12-29,41.5,35.8,32.7,26.6,16.0,10.8,74,45,35,29.98,29.57,12,2,21,0.16
2012-12-30,37.2,33.5,27.7,10.8,6.3,2.1,35,31,29,30.28,29.81,17,5,19,0.00
2012-12-31,34.2,29.9,22.6,9.0,5.5,1.3,43,35,31,30.28,29.96,12,1,12,0.00
2013-1-1,41.0,37.3,33.1,15.8,11.3,6.3,45,34,31,29.98,29.90,5,0,10,0.00